Time;durP1;ratioP1;P1;durP2;ratioP2;P2;SDS_P1;SDS_P2;PMS_P1;PMS_P2;Temp;Humidity;BMP_temperature;BMP_pressure;BME280_temperature;BME280_humidity;BME280_pressure;Samples;Min_cycle;Max_cycle;Signal;HPM_P1;HPM_P2
2023/03/31 00:01:07;;;;;;;4.50;2.40;;;10.30;99.90;;;;;;5044485;28;20418;-71
2023/03/31 00:03:37;;;;;;;3.17;2.03;;;10.40;99.90;;;;;;5045362;28;20462;-71
2023/03/31 00:06:04;;;;;;;2.83;2.40;;;10.40;99.90;;;;;;5043265;28;20410;-72
2023/03/31 00:08:34;;;;;;;8.27;2.57;;;10.40;99.90;;;;;;5046118;28;21079;-71
2023/03/31 00:11:01;;;;;;;2.27;1.80;;;10.40;99.90;;;;;;5042111;28;20501;-72
2023/03/31 00:13:28;;;;;;;6.33;2.43;;;10.40;99.90;;;;;;5039244;28;20401;-72
2023/03/31 00:15:59;;;;;;;3.23;2.40;;;10.40;99.90;;;;;;5041834;28;20927;-72
2023/03/31 00:18:25;;;;;;;3.37;2.50;;;10.40;99.90;;;;;;5039339;28;20785;-72
2023/03/31 00:20:53;;;;;;;1.93;1.67;;;10.40;99.90;;;;;;5043048;28;20410;-72
2023/03/31 00:23:26;;;;;;;2.37;2.17;;;10.40;99.90;;;;;;5041044;28;20164;-72
2023/03/31 00:25:54;;;;;;;3.40;2.43;;;10.40;99.90;;;;;;5042036;28;20936;-72
2023/03/31 00:28:20;;;;;;;2.00;1.70;;;10.40;99.90;;;;;;5040765;28;20450;-72
2023/03/31 00:30:46;;;;;;;4.20;2.00;;;10.40;99.90;;;;;;5041918;28;20429;-73
2023/03/31 00:33:12;;;;;;;7.80;1.70;;;10.40;99.90;;;;;;5042020;28;20172;-72
2023/03/31 00:35:39;;;;;;;3.47;2.13;;;10.40;99.90;;;;;;5033744;28;20426;-72
2023/03/31 00:38:07;;;;;;;2.30;2.10;;;10.40;99.90;;;;;;5044045;28;20434;-72
2023/03/31 00:40:42;;;;;;;5.90;1.97;;;10.40;99.90;;;;;;5044854;28;20409;-73
2023/03/31 00:43:35;;;;;;;5.40;1.87;;;10.40;99.90;;;;;;5040180;28;20428;-73
2023/03/31 00:46:14;;;;;;;2.90;1.90;;;10.40;99.90;;;;;;5044005;28;20413;-73
2023/03/31 00:48:56;;;;;;;3.40;2.10;;;10.40;99.90;;;;;;5044842;28;20389;-73
2023/03/31 00:51:24;;;;;;;2.77;2.00;;;10.40;99.90;;;;;;5039590;28;20386;-73
2023/03/31 00:53:56;;;;;;;3.10;1.80;;;10.40;99.90;;;;;;5047129;28;20406;-73
2023/03/31 00:56:23;;;;;;;4.07;2.17;;;10.40;99.90;;;;;;5033861;28;20415;-72
2023/03/31 00:58:49;;;;;;;6.00;2.60;;;10.40;99.90;;;;;;5033054;28;20402;-73
2023/03/31 01:01:23;;;;;;;4.23;2.37;;;10.30;99.90;;;;;;5033126;28;20409;-73
2023/03/31 01:03:49;;;;;;;2.30;2.10;;;10.30;99.90;;;;;;5041236;28;20466;-72
2023/03/31 01:06:18;;;;;;;2.80;1.70;;;10.40;99.90;;;;;;5033691;28;20819;-72
2023/03/31 01:08:46;;;;;;;3.73;2.10;;;10.30;99.90;;;;;;5040982;28;20411;-73
2023/03/31 01:11:15;;;;;;;2.07;1.37;;;10.30;99.90;;;;;;5037639;28;20432;-72
2023/03/31 01:13:42;;;;;;;2.70;1.80;;;10.30;99.90;;;;;;5044863;28;20414;-72
2023/03/31 01:16:08;;;;;;;3.13;1.90;;;10.30;99.90;;;;;;5040848;28;20647;-72
2023/03/31 01:18:34;;;;;;;1.73;1.63;;;10.30;99.90;;;;;;5032629;28;20912;-72
2023/03/31 01:21:05;;;;;;;4.90;2.03;;;10.20;99.90;;;;;;5042365;28;20468;-72
2023/03/31 01:24:05;;;;;;;4.60;1.70;;;10.10;99.90;;;;;;5043137;28;20445;-73
2023/03/31 01:26:52;;;;;;;2.67;1.87;;;10.10;99.90;;;;;;5043815;28;20469;-72
2023/03/31 01:29:47;;;;;;;5.17;2.53;;;10.00;99.90;;;;;;5038743;28;20912;-72
2023/03/31 01:32:25;;;;;;;2.50;1.80;;;10.00;99.90;;;;;;4975518;28;20928;-72
2023/03/31 01:34:56;;;;;;;3.43;1.97;;;9.90;99.90;;;;;;5035563;28;20399;-72
2023/03/31 01:37:40;;;;;;;3.67;1.80;;;9.90;99.90;;;;;;5044956;28;20417;-72
2023/03/31 01:40:08;;;;;;;1.97;1.87;;;9.80;99.90;;;;;;5040834;28;20405;-72
2023/03/31 01:42:40;;;;;;;4.30;2.33;;;9.70;99.90;;;;;;5040222;28;20849;-72
2023/03/31 01:45:36;;;;;;;2.60;1.60;;;9.80;99.90;;;;;;5046214;28;20454;-72
2023/03/31 01:48:13;;;;;;;6.70;2.40;;;9.80;99.90;;;;;;5040080;28;20431;-72
2023/03/31 01:50:50;;;;;;;3.20;1.70;;;9.80;99.90;;;;;;5039727;28;20405;-72
2023/03/31 01:53:40;;;;;;;3.60;1.40;;;9.80;99.90;;;;;;5026024;28;20442;-72
2023/03/31 01:56:26;;;;;;;7.67;2.57;;;9.80;99.90;;;;;;5039174;28;20398;-72
2023/03/31 01:59:21;;;;;;;5.70;1.63;;;9.70;99.90;;;;;;5037833;28;20399;-72
2023/03/31 02:01:55;;;;;;;3.33;1.80;;;9.70;99.90;;;;;;5043716;28;20443;-71
2023/03/31 02:04:30;;;;;;;3.00;1.60;;;9.70;99.90;;;;;;5027992;28;20992;-71
2023/03/31 02:07:03;;;;;;;3.07;2.13;;;9.70;99.90;;;;;;5051432;28;20427;-72
2023/03/31 02:09:34;;;;;;;7.43;2.00;;;9.70;99.90;;;;;;5053978;28;20410;-72
2023/03/31 02:12:05;;;;;;;3.07;2.00;;;9.70;99.90;;;;;;5047420;28;20402;-71
2023/03/31 02:14:33;;;;;;;3.97;2.40;;;9.60;99.90;;;;;;5050610;28;20698;-71
2023/03/31 02:17:01;;;;;;;5.00;2.53;;;9.60;99.90;;;;;;5053837;28;20436;-71
2023/03/31 02:19:33;;;;;;;4.00;1.90;;;9.70;99.90;;;;;;5047197;28;20409;-71
2023/03/31 02:22:00;;;;;;;5.73;2.10;;;9.70;99.90;;;;;;5038420;28;20433;-71
2023/03/31 02:24:27;;;;;;;7.63;2.00;;;9.70;99.90;;;;;;5047916;28;20483;-71
2023/03/31 02:27:02;;;;;;;1.80;1.30;;;9.70;99.90;;;;;;5034290;28;20461;-71
2023/03/31 02:29:28;;;;;;;2.77;1.40;;;9.70;99.90;;;;;;5039885;28;20406;-72
2023/03/31 02:32:19;;;;;;;2.03;1.20;;;9.70;99.90;;;;;;5040534;28;20406;-72
2023/03/31 02:34:45;;;;;;;1.73;1.30;;;9.70;99.90;;;;;;5035227;28;20503;-73
2023/03/31 02:37:12;;;;;;;3.07;2.33;;;9.70;99.90;;;;;;5042615;28;20534;-72
2023/03/31 02:39:40;;;;;;;5.13;1.60;;;9.70;99.90;;;;;;5050255;28;20211;-72
2023/03/31 02:42:06;;;;;;;3.93;1.63;;;9.80;99.90;;;;;;5042462;28;20417;-72
2023/03/31 02:44:37;;;;;;;1.73;1.37;;;9.80;99.90;;;;;;5043480;28;20449;-72
2023/03/31 02:47:14;;;;;;;1.80;1.30;;;9.80;99.90;;;;;;5041702;28;20964;-72
2023/03/31 02:49:44;;;;;;;1.87;1.50;;;9.80;99.90;;;;;;5041851;28;20423;-72
2023/03/31 02:52:22;;;;;;;5.03;2.03;;;9.80;99.90;;;;;;5036863;28;20424;-72
2023/03/31 02:55:03;;;;;;;5.20;1.60;;;9.80;99.90;;;;;;5035127;28;20514;-72
2023/03/31 02:57:48;;;;;;;3.53;1.40;;;9.90;99.90;;;;;;5040525;28;20452;-72
2023/03/31 03:00:38;;;;;;;3.57;1.53;;;9.80;99.90;;;;;;5046044;28;20411;-72
2023/03/31 03:03:13;;;;;;;3.10;1.33;;;9.90;99.90;;;;;;5042502;28;20514;-72
2023/03/31 03:06:01;;;;;;;2.00;1.20;;;9.90;99.90;;;;;;5018863;28;20540;-73
2023/03/31 03:08:54;;;;;;;6.93;1.67;;;9.90;99.90;;;;;;5030407;28;20402;-73
2023/03/31 03:11:28;;;;;;;1.33;1.10;;;9.90;99.90;;;;;;5038314;28;20734;-72
2023/03/31 03:13:56;;;;;;;1.77;1.40;;;9.90;99.90;;;;;;5040894;28;20416;-72
2023/03/31 03:16:36;;;;;;;1.50;1.10;;;9.90;99.90;;;;;;5050481;28;20425;-72
2023/03/31 03:19:05;;;;;;;1.50;1.13;;;9.90;99.90;;;;;;5033357;28;20483;-73
2023/03/31 03:21:31;;;;;;;2.10;1.10;;;9.90;99.90;;;;;;5036297;28;20401;-72
2023/03/31 03:23:58;;;;;;;1.87;1.57;;;10.00;99.90;;;;;;5034017;28;20446;-72
2023/03/31 03:26:27;;;;;;;4.10;1.37;;;9.90;99.90;;;;;;5043016;28;20452;-72
2023/03/31 03:28:56;;;;;;;11.60;2.07;;;10.00;99.90;;;;;;5045171;28;20807;-73
2023/03/31 03:31:22;;;;;;;3.90;1.93;;;10.00;99.90;;;;;;5076208;22;20483;-68
2023/03/31 03:33:51;;;;;;;4.70;1.30;;;10.00;99.90;;;;;;5071610;28;20416;-68
2023/03/31 03:36:18;;;;;;;5.93;1.40;;;10.00;99.90;;;;;;5070172;28;20401;-68
2023/03/31 03:38:44;;;;;;;1.93;1.30;;;10.00;99.90;;;;;;5071308;28;20844;-67
2023/03/31 03:41:09;;;;;;;2.10;1.57;;;10.10;99.90;;;;;;5071221;28;20452;-69
2023/03/31 03:43:35;;;;;;;2.57;1.30;;;10.10;99.90;;;;;;5074882;28;20408;-69
2023/03/31 03:46:01;;;;;;;2.07;1.37;;;10.10;99.90;;;;;;5057088;28;20228;-69
2023/03/31 03:48:26;;;;;;;2.73;1.40;;;10.10;99.90;;;;;;5073878;28;20174;-68
2023/03/31 03:50:53;;;;;;;2.20;1.60;;;10.10;99.90;;;;;;5075151;28;20221;-68
2023/03/31 03:53:19;;;;;;;4.43;1.30;;;10.10;99.90;;;;;;5075051;28;20204;-68
2023/03/31 03:55:47;;;;;;;1.70;1.13;;;10.10;99.90;;;;;;5070905;28;20400;-68
2023/03/31 03:58:14;;;;;;;3.70;1.67;;;10.20;99.90;;;;;;5075294;28;20534;-68
2023/03/31 04:00:40;;;;;;;3.90;1.80;;;10.10;99.90;;;;;;5075112;28;20481;-67
2023/03/31 04:03:05;;;;;;;6.10;1.67;;;10.10;99.90;;;;;;5074855;28;20985;-68
2023/03/31 04:05:31;;;;;;;2.00;1.27;;;10.10;99.90;;;;;;5056865;28;20667;-68
2023/03/31 04:07:56;;;;;;;5.50;1.70;;;10.10;99.90;;;;;;5074620;28;20176;-68
2023/03/31 04:10:22;;;;;;;1.10;0.93;;;10.10;99.90;;;;;;5074755;28;20194;-69
2023/03/31 04:12:48;;;;;;;6.40;1.43;;;10.20;99.90;;;;;;5074927;28;20193;-67
2023/03/31 04:15:14;;;;;;;5.80;1.90;;;10.10;99.90;;;;;;5076939;28;20175;-68
2023/03/31 04:17:40;;;;;;;2.50;1.30;;;10.10;99.90;;;;;;5076379;28;20220;-68
2023/03/31 04:20:08;;;;;;;5.30;1.40;;;10.10;99.90;;;;;;5074576;28;20405;-67
2023/03/31 04:22:39;;;;;;;3.67;1.30;;;10.20;99.90;;;;;;5075945;28;20169;-68
2023/03/31 04:25:13;;;;;;;2.87;1.70;;;10.20;99.90;;;;;;5083888;28;20448;-67
2023/03/31 04:27:49;;;;;;;1.83;1.47;;;10.20;99.90;;;;;;5084930;28;20475;-69
2023/03/31 04:30:22;;;;;;;1.33;1.20;;;10.20;99.90;;;;;;5076974;28;20739;-67
2023/03/31 04:32:49;;;;;;;3.33;1.63;;;10.10;99.90;;;;;;5071486;28;20445;-68
2023/03/31 04:35:16;;;;;;;4.33;1.73;;;10.10;99.90;;;;;;5069809;28;20469;-69
2023/03/31 04:37:43;;;;;;;2.50;1.80;;;10.10;99.90;;;;;;5074643;28;20451;-70
2023/03/31 04:40:09;;;;;;;5.50;1.57;;;10.10;99.90;;;;;;5074178;28;20416;-68
2023/03/31 04:42:35;;;;;;;2.93;1.23;;;10.10;99.90;;;;;;5074759;28;20413;-69
2023/03/31 04:45:02;;;;;;;3.27;1.33;;;10.10;99.90;;;;;;5074894;28;20455;-67
2023/03/31 04:47:27;;;;;;;1.90;1.70;;;10.10;99.90;;;;;;5074012;28;20420;-69
2023/03/31 04:49:53;;;;;;;7.53;1.50;;;10.10;99.90;;;;;;5073744;28;20408;-68
2023/03/31 04:52:19;;;;;;;8.30;1.70;;;10.10;99.90;;;;;;5073717;28;20214;-68
2023/03/31 04:54:44;;;;;;;1.60;1.23;;;10.10;99.90;;;;;;5074794;28;20174;-69
2023/03/31 04:57:10;;;;;;;2.03;1.37;;;10.10;99.90;;;;;;5073926;28;20167;-68
2023/03/31 04:59:36;;;;;;;3.73;1.30;;;10.10;99.90;;;;;;5072681;28;20170;-68
2023/03/31 05:02:01;;;;;;;2.23;1.10;;;10.10;99.90;;;;;;5071984;28;20194;-70
2023/03/31 05:04:27;;;;;;;2.80;1.70;;;10.10;99.90;;;;;;5070297;28;20186;-69
2023/03/31 05:06:52;;;;;;;2.80;1.33;;;10.20;99.90;;;;;;5073351;28;20174;-68
2023/03/31 05:09:19;;;;;;;2.70;1.67;;;10.20;99.90;;;;;;5070152;28;20625;-69
2023/03/31 05:11:45;;;;;;;3.67;1.60;;;10.20;99.90;;;;;;5073550;28;20244;-69
2023/03/31 05:14:10;;;;;;;6.50;2.43;;;10.10;99.90;;;;;;5057748;28;20409;-68
2023/03/31 05:16:36;;;;;;;2.30;1.90;;;10.10;99.90;;;;;;5073667;28;20216;-68
2023/03/31 05:19:02;;;;;;;1.97;1.40;;;10.20;99.90;;;;;;5073091;28;20174;-70
2023/03/31 05:21:29;;;;;;;2.90;1.70;;;10.10;99.90;;;;;;5073329;28;20209;-69
2023/03/31 05:23:55;;;;;;;3.87;2.43;;;10.10;99.90;;;;;;5072741;28;20458;-68
2023/03/31 05:26:23;;;;;;;4.10;2.13;;;10.10;99.90;;;;;;5065296;28;20409;-69
2023/03/31 05:28:50;;;;;;;3.17;1.90;;;10.00;99.90;;;;;;5076658;28;20495;-67
2023/03/31 05:31:16;;;;;;;3.70;2.07;;;10.10;99.90;;;;;;5075538;28;20451;-69
2023/03/31 05:33:42;;;;;;;5.17;1.60;;;10.10;99.90;;;;;;5076210;28;20411;-73
2023/03/31 05:36:09;;;;;;;1.80;1.70;;;10.10;99.90;;;;;;5075132;28;20409;-68
2023/03/31 05:38:35;;;;;;;2.80;1.77;;;10.10;99.90;;;;;;5072253;28;20258;-69
2023/03/31 05:41:00;;;;;;;4.10;1.90;;;10.10;99.90;;;;;;5073102;28;20515;-68
2023/03/31 05:43:26;;;;;;;2.97;2.20;;;10.20;99.90;;;;;;5069787;28;20194;-68
2023/03/31 05:45:52;;;;;;;4.40;1.70;;;10.20;99.90;;;;;;5072417;28;20177;-68
2023/03/31 05:48:17;;;;;;;3.57;1.73;;;10.20;99.90;;;;;;5072100;28;20162;-68
2023/03/31 05:50:43;;;;;;;4.10;1.97;;;10.40;99.90;;;;;;5070666;28;20186;-70
2023/03/31 05:53:08;;;;;;;2.70;1.40;;;10.70;99.90;;;;;;5072090;28;20599;-68
2023/03/31 05:55:37;;;;;;;1.40;1.27;;;11.00;99.90;;;;;;5071938;28;20265;-68
2023/03/31 05:58:03;;;;;;;4.20;1.33;;;11.30;99.90;;;;;;5070286;28;20323;-68
2023/03/31 06:00:28;;;;;;;2.97;1.57;;;11.40;99.90;;;;;;5072967;28;20429;-69
2023/03/31 06:02:54;;;;;;;2.60;1.43;;;11.50;99.90;;;;;;5072770;28;20178;-68
2023/03/31 06:05:21;;;;;;;3.50;1.57;;;11.50;99.90;;;;;;5071936;28;20677;-69
2023/03/31 06:07:47;;;;;;;1.40;1.30;;;11.30;99.90;;;;;;5071858;28;20173;-68
2023/03/31 06:10:12;;;;;;;4.77;1.80;;;11.30;99.90;;;;;;5072101;28;20396;-69
2023/03/31 06:12:38;;;;;;;4.20;2.00;;;11.20;99.90;;;;;;5071803;28;20170;-68
2023/03/31 06:15:04;;;;;;;4.50;2.53;;;11.20;99.90;;;;;;5072282;28;20158;-68
2023/03/31 06:17:29;;;;;;;4.30;1.57;;;11.20;99.90;;;;;;5071968;28;20166;-68
2023/03/31 06:19:55;;;;;;;4.17;1.47;;;11.00;99.90;;;;;;5072027;28;20408;-69
2023/03/31 06:22:21;;;;;;;2.93;1.90;;;11.00;99.90;;;;;;5072070;28;20201;-68
2023/03/31 06:24:46;;;;;;;3.03;1.73;;;11.10;99.90;;;;;;5065928;28;20199;-68
2023/03/31 06:27:12;;;;;;;6.57;2.30;;;11.20;99.90;;;;;;5071669;28;20194;-69
2023/03/31 06:29:37;;;;;;;3.33;1.97;;;11.20;99.90;;;;;;5071966;28;20170;-70
2023/03/31 06:32:03;;;;;;;4.67;3.03;;;11.20;99.90;;;;;;5069302;28;20560;-69
2023/03/31 06:34:29;;;;;;;3.63;1.80;;;11.30;99.90;;;;;;5071479;28;20632;-68
2023/03/31 06:36:55;;;;;;;2.40;1.63;;;11.50;99.90;;;;;;5071561;28;20408;-68
2023/03/31 06:39:21;;;;;;;3.67;1.57;;;11.50;99.90;;;;;;5071590;28;20173;-68
2023/03/31 06:41:46;;;;;;;3.47;1.70;;;11.80;99.90;;;;;;5073216;28;20236;-68
2023/03/31 06:44:15;;;;;;;3.10;1.70;;;12.40;99.90;;;;;;5071746;28;20226;-68
2023/03/31 06:46:41;;;;;;;2.33;1.57;;;12.50;99.90;;;;;;5071269;28;20166;-68
2023/03/31 06:49:07;;;;;;;2.40;1.33;;;12.50;99.90;;;;;;5072353;28;20915;-69
2023/03/31 06:51:32;;;;;;;3.90;1.70;;;12.70;99.90;;;;;;5071906;28;20477;-66
2023/03/31 06:53:58;;;;;;;2.80;2.00;;;12.80;99.90;;;;;;5071534;28;20172;-68
2023/03/31 06:56:25;;;;;;;4.97;1.53;;;12.90;99.90;;;;;;5057397;28;20541;-67
2023/03/31 06:58:50;;;;;;;5.33;2.10;;;12.80;99.90;;;;;;5071297;28;20170;-69
2023/03/31 07:01:16;;;;;;;1.63;1.53;;;13.00;99.90;;;;;;5069931;28;20433;-68
2023/03/31 07:03:41;;;;;;;7.30;2.00;;;13.30;99.90;;;;;;5067116;28;20173;-68
2023/03/31 07:06:07;;;;;;;3.20;2.03;;;13.70;99.90;;;;;;5069147;28;20171;-69
2023/03/31 07:08:33;;;;;;;4.33;2.70;;;14.20;99.90;;;;;;5066300;28;20238;-68
2023/03/31 07:10:59;;;;;;;3.60;2.00;;;14.90;99.90;;;;;;5070990;28;20240;-68
2023/03/31 07:13:26;;;;;;;2.20;1.70;;;14.50;99.90;;;;;;5071295;28;20713;-68
2023/03/31 07:15:52;;;;;;;2.47;1.43;;;14.90;99.90;;;;;;5068454;28;20417;-68
2023/03/31 07:18:18;;;;;;;2.57;1.37;;;14.50;99.90;;;;;;5074474;28;20400;-68
2023/03/31 07:20:48;;;;;;;5.67;1.37;;;14.00;99.90;;;;;;5075455;28;20432;-70
2023/03/31 07:23:13;;;;;;;5.40;2.20;;;14.00;99.90;;;;;;5075697;28;20418;-72
2023/03/31 07:25:39;;;;;;;46.70;27.77;;;14.60;99.90;;;;;;5075516;28;20547;-70
2023/03/31 07:28:05;;;;;;;9.40;6.03;;;15.00;99.90;;;;;;5074677;28;20168;-68
2023/03/31 07:30:31;;;;;;;3.47;2.20;;;15.00;99.90;;;;;;5075046;28;20449;-67
2023/03/31 07:32:57;;;;;;;4.30;2.40;;;14.90;99.90;;;;;;5076366;28;20579;-67
2023/03/31 07:35:23;;;;;;;5.50;3.37;;;14.80;99.90;;;;;;5075624;28;20413;-68
2023/03/31 07:37:50;;;;;;;5.07;2.77;;;14.70;99.90;;;;;;5070331;28;20641;-67
2023/03/31 07:40:25;;;;;;;11.33;7.03;;;14.60;99.90;;;;;;5059533;28;20176;-68
2023/03/31 07:42:51;;;;;;;6.73;3.13;;;14.80;99.90;;;;;;5069644;28;20495;-68
2023/03/31 07:45:21;;;;;;;5.87;2.80;;;14.60;99.90;;;;;;5074499;28;20459;-67
2023/03/31 07:47:47;;;;;;;3.90;3.17;;;14.40;99.90;;;;;;5063251;28;20766;-69
2023/03/31 07:50:14;;;;;;;4.50;1.63;;;14.30;99.90;;;;;;5062380;28;20470;-67
2023/03/31 07:52:40;;;;;;;5.30;3.47;;;14.40;99.90;;;;;;5079808;28;20237;-66
2023/03/31 07:55:07;;;;;;;3.27;1.80;;;15.10;99.90;;;;;;5073674;28;20420;-68
2023/03/31 07:57:33;;;;;;;16.30;8.60;;;15.60;99.90;;;;;;5074770;28;20180;-68
2023/03/31 07:59:59;;;;;;;6.40;2.00;;;15.90;99.90;;;;;;5073527;28;20418;-68
2023/03/31 08:02:25;;;;;;;6.47;3.40;;;16.10;99.90;;;;;;5070090;28;20419;-68
2023/03/31 08:04:51;;;;;;;8.37;3.93;;;15.80;99.90;;;;;;5070463;28;20564;-67
2023/03/31 08:07:17;;;;;;;40.77;23.83;;;16.10;99.90;;;;;;5070818;28;20198;-67
2023/03/31 08:09:45;;;;;;;4.83;2.03;;;15.90;99.90;;;;;;5072408;28;20409;-69
2023/03/31 08:12:11;;;;;;;8.07;2.23;;;15.40;99.90;;;;;;5073922;28;20211;-68
2023/03/31 08:14:37;;;;;;;2.70;1.50;;;15.50;99.90;;;;;;5073904;28;20412;-67
2023/03/31 08:17:03;;;;;;;2.80;1.57;;;15.00;99.90;;;;;;5074069;28;20473;-67
2023/03/31 08:19:29;;;;;;;4.60;2.73;;;14.80;99.90;;;;;;5074429;28;20775;-68
2023/03/31 08:21:55;;;;;;;3.10;1.80;;;14.70;99.90;;;;;;5071927;28;20425;-68
2023/03/31 08:24:20;;;;;;;2.90;2.10;;;14.80;99.90;;;;;;5070367;28;20456;-68
2023/03/31 08:26:46;;;;;;;5.53;2.30;;;15.30;99.90;;;;;;5072266;28;20671;-68
2023/03/31 08:29:12;;;;;;;5.40;1.80;;;15.50;99.90;;;;;;5073163;28;20423;-67
2023/03/31 08:31:38;;;;;;;4.90;4.30;;;15.30;99.90;;;;;;5073553;28;20217;-68
2023/03/31 08:34:03;;;;;;;3.70;1.70;;;15.40;99.90;;;;;;5072515;28;20174;-67
2023/03/31 08:36:29;;;;;;;3.50;1.90;;;15.50;99.90;;;;;;5073847;28;20675;-68
2023/03/31 08:38:55;;;;;;;2.37;1.73;;;15.50;99.90;;;;;;5071809;28;20173;-68
2023/03/31 08:41:51;;;;;;;9.50;6.70;;;15.40;99.90;;;;;;5073372;28;20774;-67
2023/03/31 08:44:20;;;;;;;8.73;2.40;;;15.70;99.90;;;;;;5073479;28;20188;-66
2023/03/31 08:46:47;;;;;;;4.20;2.67;;;16.00;99.90;;;;;;5074242;28;20766;-67
2023/03/31 08:49:16;;;;;;;6.00;3.00;;;15.90;99.90;;;;;;5073811;28;20404;-67
2023/03/31 08:51:51;;;;;;;13.53;7.17;;;15.90;99.90;;;;;;5075182;28;20425;-68
2023/03/31 08:54:48;;;;;;;7.40;3.77;;;16.40;99.90;;;;;;5077382;28;20436;-68
2023/03/31 08:57:40;;;;;;;5.30;1.90;;;16.90;99.90;;;;;;5076635;28;20993;-68
2023/03/31 09:00:14;;;;;;;2.63;1.30;;;16.70;99.90;;;;;;5073890;28;20780;-68
2023/03/31 09:03:01;;;;;;;4.40;1.60;;;16.50;99.90;;;;;;5073671;28;20408;-68
2023/03/31 09:05:47;;;;;;;1.70;1.20;;;16.10;99.90;;;;;;5066326;28;20543;-68
2023/03/31 09:08:18;;;;;;;4.00;1.63;;;16.20;99.90;;;;;;5073165;28;20765;-68
2023/03/31 09:11:06;;;;;;;6.17;1.63;;;16.40;99.90;;;;;;5073217;28;20425;-67
2023/03/31 09:13:32;;;;;;;2.53;1.60;;;15.90;99.90;;;;;;5067181;28;20402;-67
2023/03/31 09:16:34;;;;;;;4.00;1.60;;;16.10;99.90;;;;;;5073228;28;20996;-66
2023/03/31 09:19:01;;;;;;;3.50;1.63;;;16.20;99.90;;;;;;5070461;28;20188;-68
2023/03/31 09:21:43;;;;;;;3.93;1.63;;;16.30;99.90;;;;;;5073033;28;20433;-68
2023/03/31 09:24:23;;;;;;;3.10;1.10;;;16.50;99.90;;;;;;5073653;28;20514;-68
2023/03/31 09:27:02;;;;;;;1.90;1.37;;;16.60;99.90;;;;;;5070773;28;20769;-67
2023/03/31 09:29:45;;;;;;;4.87;1.47;;;16.60;99.90;;;;;;5067089;28;21214;-69
2023/03/31 09:32:25;;;;;;;2.80;1.53;;;16.30;99.90;;;;;;5071972;28;20445;-67
2023/03/31 09:34:59;;;;;;;2.27;1.33;;;16.70;99.90;;;;;;5072511;28;20406;-68
2023/03/31 09:37:29;;;;;;;2.87;1.40;;;17.40;99.90;;;;;;5065447;28;20485;-68
2023/03/31 09:39:58;;;;;;;4.93;1.83;;;17.60;99.90;;;;;;5071120;28;20420;-67
2023/03/31 09:42:24;;;;;;;4.90;1.63;;;18.10;99.90;;;;;;5073011;28;20544;-67
2023/03/31 09:44:50;;;;;;;5.43;3.27;;;18.20;99.90;;;;;;5072359;28;20461;-67
2023/03/31 09:47:30;;;;;;;8.57;2.03;;;17.80;99.90;;;;;;5064049;28;20280;-67
2023/03/31 09:49:55;;;;;;;4.07;1.83;;;17.40;99.90;;;;;;5072260;28;20173;-69
2023/03/31 09:52:33;;;;;;;2.37;1.97;;;16.70;99.90;;;;;;5072126;28;20487;-67
2023/03/31 09:55:02;;;;;;;3.87;1.40;;;16.80;99.90;;;;;;5060648;28;20681;-67
2023/03/31 09:57:33;;;;;;;2.93;1.10;;;16.20;99.90;;;;;;5073121;28;20495;-68
2023/03/31 10:00:13;;;;;;;1.67;1.23;;;16.10;99.90;;;;;;5071591;28;20422;-68
2023/03/31 10:03:00;;;;;;;2.60;1.40;;;15.70;99.90;;;;;;5072028;28;20420;-68
2023/03/31 10:05:35;;;;;;;4.07;1.40;;;15.80;99.90;;;;;;5064136;28;20459;-68
2023/03/31 10:08:10;;;;;;;2.47;1.20;;;15.80;99.90;;;;;;5071521;28;20497;-68
2023/03/31 10:10:36;;;;;;;4.63;1.53;;;15.70;99.90;;;;;;5068926;28;20510;-68
2023/03/31 10:13:08;;;;;;;3.60;1.83;;;15.70;99.90;;;;;;5071491;28;20461;-67
2023/03/31 10:15:36;;;;;;;5.00;1.60;;;15.30;99.90;;;;;;5068695;28;20777;-67
2023/03/31 10:18:02;;;;;;;3.33;1.03;;;15.20;99.90;;;;;;5070632;28;20501;-68
2023/03/31 10:20:36;;;;;;;2.00;1.50;;;15.20;99.90;;;;;;5072304;28;20494;-67
2023/03/31 10:23:14;;;;;;;7.60;1.50;;;15.10;99.90;;;;;;5070197;28;20750;-68
2023/03/31 10:25:40;;;;;;;2.93;1.50;;;15.10;99.90;;;;;;5071967;28;20515;-68
2023/03/31 10:28:10;;;;;;;2.57;1.60;;;15.00;99.90;;;;;;5068973;28;20505;-67
2023/03/31 10:30:38;;;;;;;3.00;1.40;;;14.80;99.90;;;;;;5071614;28;20620;-67
2023/03/31 10:33:15;;;;;;;2.90;2.17;;;14.50;99.90;;;;;;5071399;28;20413;-67
2023/03/31 10:35:40;;;;;;;4.50;2.23;;;14.40;99.90;;;;;;5071447;28;20804;-68
2023/03/31 10:38:13;;;;;;;2.27;1.50;;;14.50;99.90;;;;;;5071318;28;20409;-68
2023/03/31 10:40:49;;;;;;;2.70;2.17;;;14.60;99.90;;;;;;5069170;28;20449;-68
2023/03/31 10:43:18;;;;;;;4.43;2.13;;;14.80;99.90;;;;;;5102549;22;20610;-73
2023/03/31 10:45:55;;;;;;;1.77;1.67;;;14.80;99.90;;;;;;5070740;28;20813;-74
2023/03/31 10:48:27;;;;;;;3.20;2.47;;;14.90;99.90;;;;;;5069496;28;20404;-74
2023/03/31 10:50:55;;;;;;;3.00;2.40;;;14.80;99.90;;;;;;5073523;28;20491;-75
2023/03/31 10:53:21;;;;;;;4.23;2.10;;;14.80;99.90;;;;;;5073042;28;20768;-75
2023/03/31 10:56:18;;;;;;;3.73;1.70;;;14.80;99.90;;;;;;5059769;28;20479;-74
2023/03/31 10:58:50;;;;;;;2.20;2.00;;;14.90;99.90;;;;;;5072697;28;20656;-76
2023/03/31 11:01:27;;;;;;;4.43;2.20;;;14.90;99.90;;;;;;5078124;28;20839;-74
2023/03/31 11:03:53;;;;;;;3.00;1.80;;;14.90;99.90;;;;;;5079056;28;20439;-74
2023/03/31 11:06:45;;;;;;;5.03;2.10;;;14.90;99.90;;;;;;5060266;28;20401;-73
2023/03/31 11:09:51;;;;;;;4.67;2.33;;;14.70;99.90;;;;;;5078094;28;20480;-74
2023/03/31 11:12:40;;;;;;;3.33;2.20;;;14.80;99.90;;;;;;5077458;28;20402;-75
2023/03/31 11:15:25;;;;;;;12.40;2.50;;;15.10;99.90;;;;;;5038307;28;20414;-74
2023/03/31 11:18:35;;;;;;;2.03;1.93;;;15.30;99.90;;;;;;5068217;28;20409;-74
2023/03/31 11:21:42;;;;;;;2.83;1.80;;;15.50;99.90;;;;;;5037553;28;20397;-75
2023/03/31 11:24:23;;;;;;;4.20;2.00;;;15.60;99.90;;;;;;5000664;28;20500;-74
2023/03/31 11:27:13;;;;;;;5.13;1.80;;;15.50;99.90;;;;;;5015101;28;20924;-73
2023/03/31 11:29:56;;;;;;;2.23;1.60;;;15.80;99.90;;;;;;5061856;28;20811;-73
2023/03/31 11:32:46;;;;;;;4.40;2.50;;;15.80;99.90;;;;;;5076203;28;20463;-74
2023/03/31 11:35:42;;;;;;;6.63;2.03;;;15.70;99.90;;;;;;5077545;28;20409;-73
2023/03/31 11:38:33;;;;;;;1.97;1.73;;;15.80;99.90;;;;;;5078461;28;20405;-73
2023/03/31 11:41:01;;;;;;;2.03;1.70;;;16.00;99.90;;;;;;5075491;28;20406;-72
2023/03/31 11:43:35;;;;;;;4.97;1.50;;;15.90;99.90;;;;;;5060066;28;20956;-73
2023/03/31 11:46:15;;;;;;;3.20;1.50;;;15.70;99.90;;;;;;5077633;28;20446;-72
2023/03/31 11:48:45;;;;;;;5.50;2.00;;;15.70;99.90;;;;;;5077159;28;20398;-73
2023/03/31 11:51:18;;;;;;;2.70;1.70;;;15.70;99.90;;;;;;5078312;28;20422;-73
2023/03/31 11:53:47;;;;;;;1.73;1.53;;;15.80;99.90;;;;;;5077424;28;20552;-74
2023/03/31 11:56:15;;;;;;;5.17;1.67;;;15.80;99.90;;;;;;5077035;28;20582;-74
2023/03/31 11:58:51;;;;;;;3.43;1.30;;;15.70;99.90;;;;;;5077235;28;20411;-73
2023/03/31 12:01:45;;;;;;;3.27;1.70;;;15.50;99.90;;;;;;5076794;28;20451;-74
2023/03/31 12:04:27;;;;;;;3.37;1.70;;;15.70;99.90;;;;;;5071963;28;20524;-73
2023/03/31 12:07:00;;;;;;;2.97;1.50;;;15.80;99.90;;;;;;5073598;28;20901;-74
2023/03/31 12:09:44;;;;;;;2.50;1.80;;;15.90;99.90;;;;;;5066419;28;20412;-73
2023/03/31 12:12:18;;;;;;;21.33;14.53;;;15.70;99.90;;;;;;5073671;28;20391;-73
2023/03/31 12:14:50;;;;;;;4.80;2.90;;;15.50;99.90;;;;;;5074227;28;20811;-72
2023/03/31 12:17:28;;;;;;;20.50;13.13;;;15.50;99.90;;;;;;5074572;28;20410;-73
2023/03/31 12:19:57;;;;;;;13.10;6.03;;;15.50;99.90;;;;;;5073520;28;20405;-72
2023/03/31 12:22:30;;;;;;;5.63;3.10;;;14.80;99.90;;;;;;5074039;28;20414;-74
2023/03/31 12:24:55;;;;;;;11.87;7.77;;;14.30;99.90;;;;;;5073648;28;20460;-74
2023/03/31 12:27:43;;;;;;;7.70;4.90;;;14.10;99.90;;;;;;5073811;28;20402;-75
2023/03/31 12:30:20;;;;;;;3.70;2.80;;;14.10;99.90;;;;;;5073394;28;20164;-76
2023/03/31 12:32:54;;;;;;;3.23;2.93;;;13.90;99.90;;;;;;5074946;28;20432;-79
2023/03/31 12:35:28;;;;;;;3.20;2.30;;;14.30;99.90;;;;;;5067228;28;20420;-74
2023/03/31 12:38:19;;;;;;;10.67;8.20;;;14.30;99.90;;;;;;5076023;28;20506;-73
2023/03/31 12:41:07;;;;;;;5.83;4.63;;;14.30;99.90;;;;;;5077758;28;20410;-76
2023/03/31 12:43:45;;;;;;;6.83;3.80;;;14.50;99.90;;;;;;5075413;28;20456;-76
2023/03/31 12:46:24;;;;;;;9.73;6.60;;;14.70;99.90;;;;;;5077246;28;20409;-75
2023/03/31 12:49:22;;;;;;;15.67;9.27;;;14.80;99.90;;;;;;5072004;28;20396;-76
2023/03/31 12:51:59;;;;;;;9.50;6.27;;;14.70;99.90;;;;;;5072628;28;20808;-76
2023/03/31 12:54:53;;;;;;;3.50;1.97;;;14.50;99.90;;;;;;5066717;28;20413;-75
2023/03/31 12:57:22;;;;;;;24.10;14.43;;;14.40;99.90;;;;;;5064830;28;20899;-76
2023/03/31 13:00:18;;;;;;;7.93;4.57;;;14.50;99.90;;;;;;5075545;28;20447;-74
2023/03/31 13:02:43;;;;;;;5.50;3.90;;;14.50;99.90;;;;;;5064432;28;20415;-75
2023/03/31 13:05:37;;;;;;;3.70;2.40;;;13.80;99.90;;;;;;5073149;28;20446;-76
2023/03/31 13:08:09;;;;;;;1.30;1.20;;;13.60;99.90;;;;;;5072532;28;20170;-76
2023/03/31 13:10:57;;;;;;;7.53;5.53;;;13.30;99.90;;;;;;5075397;28;20424;-76
2023/03/31 13:13:24;;;;;;;1.60;1.27;;;13.00;99.90;;;;;;5067598;28;20428;-76